DNMA

Details ICAO DNMA (MIU)
Name MAIDUGURI
Region Nigeria
Timezone Africa/Lagos (UTC+1.0)
Plans Departing 25
Arriving 17
Stats Elevation 1,099 ft / 335 m (AMSL)
Location 11.855243° 13.081285°
Runways 1
Magnetic Variation 0.826° E
Sunrise 2018-05-28 04:43:48 UTC / 2018-05-28 05:43:48 Local
Sunset 2018-05-28 17:28:59 UTC / 2018-05-28 18:28:59 Local
Advertisement - Login to hide

Runways

ID Width Length Bearing (true) Bearing (mag) Surface Threshold Offset Overrun Length
05 197 ft / 60 m 9,866 ft / 3,007 m 46.51° 45.68° Asphalt 0 ft / 0 m 333 ft / 102 m
23 197 ft / 60 m 9,866 ft / 3,007 m 226.51° 225.68° Asphalt 0 ft / 0 m 336 ft / 102 m

Approach Navaids

Runway Type Ident Frequency Range Bearing (true) Bearing (mag) Slope Elevation
05 Localiser IMA 110.30 MHz 18 nm / 33 km 46.51° 45.68° - 1,096 ft / 334 m (AMSL)
05 Glidescope IMA 110.30 MHz 10 nm / 19 km 46.51° 45.68° 3.00° 1,138 ft / 347 m (AMSL)
05 DME IMA 110.80 MHz 18 nm / 33 km - - - 1,222 ft / 372 m (AMSL)

Map

Weather


0- 5 10 15 20 25 30 35+ Temperature / ° C

Clouds and Precipitation
Forecast for 2018-05-28 00:00 UTC. Updated 3 hours ago

Ground ~20,000 ft ~40,000 ft Winds

METAR

Not found

TAF

TAF DNMA 272130Z 2800/2906 22010KT CAVOK

Frequencies

Tower 123.10 MHz TWR
Warning: Do not use this data for real-world aviation or navigation. No guarantee of current accuracy is given.